sensor_id;sensor_type;location;lat;lon;timestamp;pressure;altitude;pressure_sealevel;temperature;humidity
74958;BME280;63741;42.624;26.276;2023-04-01T00:01:27;99016.03;;;9.03;65.41
74958;BME280;63741;42.624;26.276;2023-04-01T00:03:53;99025.28;;;8.98;65.70
74958;BME280;63741;42.624;26.276;2023-04-01T00:06:22;99024.78;;;8.93;64.78
74958;BME280;63741;42.624;26.276;2023-04-01T00:08:48;99020.38;;;8.82;65.47
74958;BME280;63741;42.624;26.276;2023-04-01T00:11:16;99021.97;;;8.84;64.92
74958;BME280;63741;42.624;26.276;2023-04-01T00:13:46;99019.06;;;8.88;64.42
74958;BME280;63741;42.624;26.276;2023-04-01T00:16:14;99017.97;;;8.90;64.27
74958;BME280;63741;42.624;26.276;2023-04-01T00:18:44;99013.91;;;8.75;64.88
74958;BME280;63741;42.624;26.276;2023-04-01T00:21:15;99017.19;;;8.67;65.76
74958;BME280;63741;42.624;26.276;2023-04-01T00:23:42;99003.41;;;8.64;65.49
74958;BME280;63741;42.624;26.276;2023-04-01T00:26:10;99008.06;;;8.71;65.99
74958;BME280;63741;42.624;26.276;2023-04-01T00:28:39;99004.38;;;8.63;64.91
74958;BME280;63741;42.624;26.276;2023-04-01T00:31:09;98994.19;;;8.58;65.12
74958;BME280;63741;42.624;26.276;2023-04-01T00:33:37;99003.53;;;8.62;65.16
74958;BME280;63741;42.624;26.276;2023-04-01T00:36:16;98991.19;;;8.51;64.97
74958;BME280;63741;42.624;26.276;2023-04-01T00:38:44;98980.78;;;8.39;65.16
74958;BME280;63741;42.624;26.276;2023-04-01T00:41:12;98966.03;;;8.47;64.90
74958;BME280;63741;42.624;26.276;2023-04-01T00:43:42;98965.09;;;8.48;65.17
74958;BME280;63741;42.624;26.276;2023-04-01T00:46:10;98954.44;;;8.50;64.71
74958;BME280;63741;42.624;26.276;2023-04-01T00:48:48;98947.72;;;8.46;65.02
74958;BME280;63741;42.624;26.276;2023-04-01T00:51:21;98955.50;;;8.36;66.13
74958;BME280;63741;42.624;26.276;2023-04-01T00:53:52;98952.75;;;8.38;65.65
74958;BME280;63741;42.624;26.276;2023-04-01T00:56:50;98960.75;;;8.36;65.94
74958;BME280;63741;42.624;26.276;2023-04-01T00:59:25;98954.06;;;8.21;66.67
74958;BME280;63741;42.624;26.276;2023-04-01T01:01:53;98961.34;;;8.28;66.08
74958;BME280;63741;42.624;26.276;2023-04-01T01:04:29;98964.47;;;8.33;66.98
74958;BME280;63741;42.624;26.276;2023-04-01T01:12:45;98961.72;;;8.24;67.30
74958;BME280;63741;42.624;26.276;2023-04-01T01:21:24;98952.03;;;8.13;66.85
74958;BME280;63741;42.624;26.276;2023-04-01T01:29:33;98945.69;;;7.93;67.91
74958;BME280;63741;42.624;26.276;2023-04-01T01:35:16;98936.94;;;7.59;68.13
74958;BME280;63741;42.624;26.276;2023-04-01T01:37:50;98933.19;;;7.50;67.77
74958;BME280;63741;42.624;26.276;2023-04-01T01:40:19;98932.63;;;7.69;68.06
74958;BME280;63741;42.624;26.276;2023-04-01T01:42:50;98927.34;;;7.80;66.60
74958;BME280;63741;42.624;26.276;2023-04-01T01:45:20;98931.91;;;7.78;66.46
74958;BME280;63741;42.624;26.276;2023-04-01T01:47:48;98936.78;;;7.72;67.20
74958;BME280;63741;42.624;26.276;2023-04-01T01:50:18;98924.72;;;7.80;67.34
74958;BME280;63741;42.624;26.276;2023-04-01T01:52:46;98922.44;;;7.76;67.62
74958;BME280;63741;42.624;26.276;2023-04-01T02:00:55;98919.47;;;7.92;68.34
74958;BME280;63741;42.624;26.276;2023-04-01T02:03:25;98922.34;;;8.00;67.10
74958;BME280;63741;42.624;26.276;2023-04-01T02:05:56;98914.19;;;8.03;66.90
74958;BME280;63741;42.624;26.276;2023-04-01T02:08:40;98915.88;;;8.04;68.04
74958;BME280;63741;42.624;26.276;2023-04-01T02:11:12;98914.31;;;7.90;68.52
74958;BME280;63741;42.624;26.276;2023-04-01T02:13:52;98912.88;;;7.97;67.91
74958;BME280;63741;42.624;26.276;2023-04-01T02:16:25;98918.03;;;7.88;68.73
74958;BME280;63741;42.624;26.276;2023-04-01T02:18:55;98908.47;;;7.87;68.84
74958;BME280;63741;42.624;26.276;2023-04-01T02:21:26;98918.25;;;7.84;69.05
74958;BME280;63741;42.624;26.276;2023-04-01T02:23:55;98922.56;;;7.85;68.53
74958;BME280;63741;42.624;26.276;2023-04-01T02:26:24;98915.50;;;7.97;68.41
74958;BME280;63741;42.624;26.276;2023-04-01T02:28:56;98921.63;;;7.87;67.70
74958;BME280;63741;42.624;26.276;2023-04-01T02:31:24;98909.53;;;7.84;67.03
74958;BME280;63741;42.624;26.276;2023-04-01T02:33:52;98902.47;;;7.73;67.46
74958;BME280;63741;42.624;26.276;2023-04-01T02:36:20;98909.78;;;7.70;68.40
74958;BME280;63741;42.624;26.276;2023-04-01T02:38:47;98911.44;;;7.59;67.73
74958;BME280;63741;42.624;26.276;2023-04-01T02:41:16;98905.56;;;7.56;67.44
74958;BME280;63741;42.624;26.276;2023-04-01T02:43:43;98903.66;;;7.47;65.70
74958;BME280;63741;42.624;26.276;2023-04-01T02:46:10;98895.97;;;7.32;66.60
74958;BME280;63741;42.624;26.276;2023-04-01T02:48:37;98899.31;;;7.34;65.63
74958;BME280;63741;42.624;26.276;2023-04-01T02:51:04;98889.97;;;7.30;66.69
74958;BME280;63741;42.624;26.276;2023-04-01T02:53:31;98883.25;;;7.26;67.76
74958;BME280;63741;42.624;26.276;2023-04-01T02:55:58;98880.53;;;7.28;67.95
74958;BME280;63741;42.624;26.276;2023-04-01T02:58:25;98877.53;;;7.21;66.82
74958;BME280;63741;42.624;26.276;2023-04-01T03:00:52;98884.00;;;7.28;66.76
74958;BME280;63741;42.624;26.276;2023-04-01T03:03:19;98886.28;;;7.33;67.80
74958;BME280;63741;42.624;26.276;2023-04-01T03:05:46;98877.56;;;7.32;68.61
74958;BME280;63741;42.624;26.276;2023-04-01T03:08:13;98874.28;;;7.18;68.55
74958;BME280;63741;42.624;26.276;2023-04-01T03:10:39;98870.03;;;7.28;68.59
74958;BME280;63741;42.624;26.276;2023-04-01T03:13:07;98877.78;;;7.29;67.33
74958;BME280;63741;42.624;26.276;2023-04-01T03:15:34;98870.16;;;7.38;68.20
74958;BME280;63741;42.624;26.276;2023-04-01T03:18:00;98872.75;;;7.26;67.01
74958;BME280;63741;42.624;26.276;2023-04-01T03:20:28;98870.03;;;7.28;67.29
74958;BME280;63741;42.624;26.276;2023-04-01T03:22:55;98875.75;;;7.33;66.70
74958;BME280;63741;42.624;26.276;2023-04-01T03:25:22;98877.56;;;7.32;68.17
74958;BME280;63741;42.624;26.276;2023-04-01T03:27:49;98877.78;;;7.29;67.69
74958;BME280;63741;42.624;26.276;2023-04-01T03:30:16;98884.50;;;7.33;67.71
74958;BME280;63741;42.624;26.276;2023-04-01T03:32:49;98882.00;;;7.43;66.46
74958;BME280;63741;42.624;26.276;2023-04-01T03:35:16;98872.78;;;7.38;66.03
74958;BME280;63741;42.624;26.276;2023-04-01T03:37:44;98874.19;;;7.30;67.56
74958;BME280;63741;42.624;26.276;2023-04-01T03:40:12;98883.88;;;7.30;66.47
74958;BME280;63741;42.624;26.276;2023-04-01T03:42:38;98881.72;;;7.24;66.85
74958;BME280;63741;42.624;26.276;2023-04-01T03:45:06;98876.69;;;7.21;66.77
74958;BME280;63741;42.624;26.276;2023-04-01T03:47:33;98878.25;;;7.23;66.66
74958;BME280;63741;42.624;26.276;2023-04-01T03:50:00;98882.06;;;7.19;67.17
74958;BME280;63741;42.624;26.276;2023-04-01T03:52:27;98879.19;;;7.22;65.75
74958;BME280;63741;42.624;26.276;2023-04-01T03:54:54;98871.44;;;7.21;64.84
74958;BME280;63741;42.624;26.276;2023-04-01T03:57:21;98882.16;;;7.18;65.39
74958;BME280;63741;42.624;26.276;2023-04-01T03:59:48;98878.09;;;7.14;66.10
74958;BME280;63741;42.624;26.276;2023-04-01T04:02:15;98880.00;;;7.12;66.22
74958;BME280;63741;42.624;26.276;2023-04-01T04:04:43;98876.91;;;7.18;67.15
74958;BME280;63741;42.624;26.276;2023-04-01T04:07:10;98882.06;;;7.19;66.14
74958;BME280;63741;42.624;26.276;2023-04-01T04:10:12;98876.13;;;7.28;67.34
74958;BME280;63741;42.624;26.276;2023-04-01T04:12:39;98878.13;;;7.36;68.21
74958;BME280;63741;42.624;26.276;2023-04-01T04:15:08;98886.63;;;7.28;68.38
74958;BME280;63741;42.624;26.276;2023-04-01T04:17:36;98882.91;;;7.20;70.31
74958;BME280;63741;42.624;26.276;2023-04-01T04:20:03;98872.00;;;7.13;69.62
74958;BME280;63741;42.624;26.276;2023-04-01T04:22:30;98875.25;;;7.17;71.05
74958;BME280;63741;42.624;26.276;2023-04-01T04:24:57;98864.63;;;7.29;71.04
74958;BME280;63741;42.624;26.276;2023-04-01T04:27:24;98862.84;;;7.30;70.08
74958;BME280;63741;42.624;26.276;2023-04-01T04:30:06;98865.97;;;7.46;70.28
74958;BME280;63741;42.624;26.276;2023-04-01T04:32:34;98857.00;;;7.60;70.09
74958;BME280;63741;42.624;26.276;2023-04-01T04:35:01;98848.84;;;7.63;70.42
74958;BME280;63741;42.624;26.276;2023-04-01T04:37:28;98846.47;;;7.60;70.19
74958;BME280;63741;42.624;26.276;2023-04-01T04:39:55;98837.25;;;7.66;70.08
74958;BME280;63741;42.624;26.276;2023-04-01T04:42:22;98842.16;;;7.70;70.66
74958;BME280;63741;42.624;26.276;2023-04-01T04:44:54;98837.97;;;7.79;70.61
74958;BME280;63741;42.624;26.276;2023-04-01T04:47:21;98830.22;;;7.77;70.20
74958;BME280;63741;42.624;26.276;2023-04-01T04:49:48;98820.97;;;7.83;69.56
74958;BME280;63741;42.624;26.276;2023-04-01T04:52:15;98822.03;;;7.80;69.27
74958;BME280;63741;42.624;26.276;2023-04-01T04:54:42;98811.66;;;7.79;68.87
74958;BME280;63741;42.624;26.276;2023-04-01T04:57:09;98810.31;;;7.84;69.53
74958;BME280;63741;42.624;26.276;2023-04-01T04:59:43;98816.19;;;7.88;69.92
74958;BME280;63741;42.624;26.276;2023-04-01T05:02:14;98810.03;;;7.99;69.25
74958;BME280;63741;42.624;26.276;2023-04-01T05:04:41;98797.47;;;8.02;69.53
74958;BME280;63741;42.624;26.276;2023-04-01T05:07:10;98805.97;;;8.06;70.50
74958;BME280;63741;42.624;26.276;2023-04-01T05:09:37;98803.47;;;8.04;68.87
74958;BME280;63741;42.624;26.276;2023-04-01T05:12:04;98802.09;;;8.21;68.45
74958;BME280;63741;42.624;26.276;2023-04-01T05:14:57;98796.09;;;8.30;68.83
74958;BME280;63741;42.624;26.276;2023-04-01T05:17:24;98794.66;;;8.38;69.50
74958;BME280;63741;42.624;26.276;2023-04-01T05:19:52;98800.78;;;8.27;70.59
74958;BME280;63741;42.624;26.276;2023-04-01T05:22:19;98810.13;;;8.20;72.08
74958;BME280;63741;42.624;26.276;2023-04-01T05:24:47;98817.75;;;8.34;72.81
74958;BME280;63741;42.624;26.276;2023-04-01T05:27:14;98813.56;;;8.43;72.42
74958;BME280;63741;42.624;26.276;2023-04-01T05:29:42;98816.75;;;8.57;72.92
74958;BME280;63741;42.624;26.276;2023-04-01T05:32:25;98822.13;;;8.56;73.63
74958;BME280;63741;42.624;26.276;2023-04-01T05:34:52;98819.94;;;8.61;71.84
74958;BME280;63741;42.624;26.276;2023-04-01T05:37:19;98817.03;;;8.75;71.57
74958;BME280;63741;42.624;26.276;2023-04-01T05:39:46;98809.28;;;8.83;72.11
74958;BME280;63741;42.624;26.276;2023-04-01T05:42:13;98805.19;;;8.91;73.16
74958;BME280;63741;42.624;26.276;2023-04-01T05:44:42;98811.50;;;8.99;72.55
74958;BME280;63741;42.624;26.276;2023-04-01T05:47:28;98815.03;;;9.09;73.72
74958;BME280;63741;42.624;26.276;2023-04-01T05:49:55;98812.75;;;9.26;73.06
74958;BME280;63741;42.624;26.276;2023-04-01T05:52:22;98814.75;;;9.33;72.66
74958;BME280;63741;42.624;26.276;2023-04-01T05:54:48;98816.06;;;9.49;72.34
74958;BME280;63741;42.624;26.276;2023-04-01T05:57:16;98819.06;;;9.65;70.82
74958;BME280;63741;42.624;26.276;2023-04-01T05:59:44;98812.06;;;9.95;70.70
74958;BME280;63741;42.624;26.276;2023-04-01T06:02:12;98804.28;;;9.93;70.50
74958;BME280;63741;42.624;26.276;2023-04-01T06:04:40;98801.50;;;10.04;69.97
74958;BME280;63741;42.624;26.276;2023-04-01T06:07:15;98807.03;;;10.32;69.24
74958;BME280;63741;42.624;26.276;2023-04-01T06:09:43;98803.41;;;10.43;69.11
74958;BME280;63741;42.624;26.276;2023-04-01T06:15:23;98811.19;;;10.93;67.35
74958;BME280;63741;42.624;26.276;2023-04-01T06:46:09;98785.16;;;11.72;65.58
74958;BME280;63741;42.624;26.276;2023-04-01T06:52:40;98788.94;;;12.25;64.64
74958;BME280;63741;42.624;26.276;2023-04-01T06:55:23;98792.72;;;12.40;65.68
74958;BME280;63741;42.624;26.276;2023-04-01T06:58:37;98790.97;;;12.49;64.73
74958;BME280;63741;42.624;26.276;2023-04-01T07:01:14;98796.28;;;12.31;63.42
74958;BME280;63741;42.624;26.276;2023-04-01T07:03:49;98786.97;;;12.45;64.42
74958;BME280;63741;42.624;26.276;2023-04-01T07:08:58;98787.75;;;12.81;63.38
74958;BME280;63741;42.624;26.276;2023-04-01T07:11:50;98792.84;;;12.92;62.90
74958;BME280;63741;42.624;26.276;2023-04-01T07:14:41;98780.78;;;12.80;63.03
74958;BME280;63741;42.624;26.276;2023-04-01T07:17:16;98785.53;;;12.94;62.61
74958;BME280;63741;42.624;26.276;2023-04-01T07:19:51;98788.19;;;12.94;63.00
74958;BME280;63741;42.624;26.276;2023-04-01T07:22:28;98770.66;;;13.01;62.75
74958;BME280;63741;42.624;26.276;2023-04-01T07:25:17;98779.38;;;13.37;61.85
74958;BME280;63741;42.624;26.276;2023-04-01T07:27:53;98778.13;;;13.50;61.31
74958;BME280;63741;42.624;26.276;2023-04-01T07:30:24;98767.25;;;13.09;61.14
74958;BME280;63741;42.624;26.276;2023-04-01T07:32:56;98755.00;;;13.42;61.82
74958;BME280;63741;42.624;26.276;2023-04-01T07:35:30;98753.78;;;13.62;60.52
74958;BME280;63741;42.624;26.276;2023-04-01T07:52:24;98727.78;;;13.90;58.79
74958;BME280;63741;42.624;26.276;2023-04-01T07:55:43;98729.75;;;13.80;58.73
74958;BME280;63741;42.624;26.276;2023-04-01T07:58:09;98735.63;;;14.00;57.53
74958;BME280;63741;42.624;26.276;2023-04-01T08:03:32;98728.88;;;13.63;59.31
74958;BME280;63741;42.624;26.276;2023-04-01T08:11:54;98714.38;;;14.08;57.35
74958;BME280;63741;42.624;26.276;2023-04-01T08:15:22;98718.38;;;14.12;56.59
74958;BME280;63741;42.624;26.276;2023-04-01T08:23:47;98712.06;;;14.46;56.68
74958;BME280;63741;42.624;26.276;2023-04-01T08:26:28;98715.59;;;14.55;56.21
74958;BME280;63741;42.624;26.276;2023-04-01T08:32:40;98660.56;;;15.89;53.05
74958;BME280;63741;42.624;26.276;2023-04-01T08:35:24;98656.22;;;15.88;53.81
74958;BME280;63741;42.624;26.276;2023-04-01T08:38:01;98664.03;;;15.59;53.73
74958;BME280;63741;42.624;26.276;2023-04-01T08:43:44;98677.47;;;15.74;54.63
74958;BME280;63741;42.624;26.276;2023-04-01T08:49:27;98665.81;;;16.96;50.10
74958;BME280;63741;42.624;26.276;2023-04-01T09:01:13;98649.34;;;17.88;49.77
74958;BME280;63741;42.624;26.276;2023-04-01T09:20:47;98629.44;;;17.10;51.89
74958;BME280;63741;42.624;26.276;2023-04-01T09:46:14;98589.50;;;18.17;49.83
74958;BME280;63741;42.624;26.276;2023-04-01T10:04:08;98564.56;;;17.52;52.32
74958;BME280;63741;42.624;26.276;2023-04-01T10:06:57;98560.00;;;17.67;52.02
74958;BME280;63741;42.624;26.276;2023-04-01T10:29:02;98504.88;;;18.16;51.85
74958;BME280;63741;42.624;26.276;2023-04-01T10:51:32;98452.91;;;19.81;50.12
74958;BME280;63741;42.624;26.276;2023-04-01T10:54:30;98445.06;;;19.73;50.11
74958;BME280;63741;42.624;26.276;2023-04-01T11:00:57;98417.25;;;18.73;51.77
74958;BME280;63741;42.624;26.276;2023-04-01T11:40:32;98386.47;;;19.69;49.50
74958;BME280;63741;42.624;26.276;2023-04-01T11:43:40;98381.13;;;20.48;47.38
74958;BME280;63741;42.624;26.276;2023-04-01T11:46:52;98366.25;;;20.45;47.87
74958;BME280;63741;42.624;26.276;2023-04-01T11:49:32;98368.38;;;20.81;46.63
74958;BME280;63741;42.624;26.276;2023-04-01T12:01:07;98337.69;;;19.99;48.73
74958;BME280;63741;42.624;26.276;2023-04-01T12:11:45;98318.47;;;20.92;46.24
74958;BME280;63741;42.624;26.276;2023-04-01T12:23:10;98294.03;;;20.68;47.47
74958;BME280;63741;42.624;26.276;2023-04-01T12:31:26;98274.50;;;20.10;48.27
74958;BME280;63741;42.624;26.276;2023-04-01T12:39:15;98278.41;;;19.29;49.63
74958;BME280;63741;42.624;26.276;2023-04-01T12:50:14;98261.38;;;19.82;46.50
74958;BME280;63741;42.624;26.276;2023-04-01T12:55:40;98273.50;;;19.98;46.32
74958;BME280;63741;42.624;26.276;2023-04-01T13:06:25;98282.03;;;19.68;45.26
74958;BME280;63741;42.624;26.276;2023-04-01T13:09:26;98281.44;;;19.66;45.10
74958;BME280;63741;42.624;26.276;2023-04-01T13:28:53;98233.41;;;20.09;43.82
74958;BME280;63741;42.624;26.276;2023-04-01T13:37:15;98218.31;;;19.57;45.78
74958;BME280;63741;42.624;26.276;2023-04-01T13:40:02;98206.94;;;19.68;45.39
74958;BME280;63741;42.624;26.276;2023-04-01T13:59:07;98185.91;;;20.10;43.44
74958;BME280;63741;42.624;26.276;2023-04-01T14:21:21;98152.34;;;19.36;44.78
74958;BME280;63741;42.624;26.276;2023-04-01T14:49:49;98098.59;;;19.17;44.15
74958;BME280;63741;42.624;26.276;2023-04-01T14:52:36;98101.91;;;19.06;44.82
74958;BME280;63741;42.624;26.276;2023-04-01T14:55:21;98099.03;;;19.08;44.40
74958;BME280;63741;42.624;26.276;2023-04-01T14:58:07;98096.00;;;18.91;45.37
74958;BME280;63741;42.624;26.276;2023-04-01T15:00:46;98105.69;;;18.85;45.63
74958;BME280;63741;42.624;26.276;2023-04-01T15:03:33;98104.88;;;18.85;45.66
74958;BME280;63741;42.624;26.276;2023-04-01T15:28:39;98097.88;;;18.64;45.83
74958;BME280;63741;42.624;26.276;2023-04-01T15:31:18;98104.25;;;18.63;45.79
74958;BME280;63741;42.624;26.276;2023-04-01T15:37:23;98115.38;;;18.60;47.30
74958;BME280;63741;42.624;26.276;2023-04-01T15:40:01;98120.53;;;18.55;48.22
74958;BME280;63741;42.624;26.276;2023-04-01T15:45:56;98242.44;;;18.31;51.45
74958;BME280;63741;42.624;26.276;2023-04-01T15:48:28;98203.09;;;16.94;54.71
74958;BME280;63741;42.624;26.276;2023-04-01T16:16:58;98203.94;;;14.99;58.83
74958;BME280;63741;42.624;26.276;2023-04-01T16:22:06;98195.41;;;14.88;59.79
74958;BME280;63741;42.624;26.276;2023-04-01T16:24:43;98184.81;;;14.80;60.21
74958;BME280;63741;42.624;26.276;2023-04-01T16:41:07;98175.75;;;14.06;61.54
74958;BME280;63741;42.624;26.276;2023-04-01T16:46:14;98185.69;;;14.35;60.11
74958;BME280;63741;42.624;26.276;2023-04-01T16:51:16;98185.91;;;14.71;59.02
74958;BME280;63741;42.624;26.276;2023-04-01T16:54:05;98171.31;;;14.82;59.10
74958;BME280;63741;42.624;26.276;2023-04-01T16:56:43;98182.78;;;14.68;58.83
74958;BME280;63741;42.624;26.276;2023-04-01T17:01:53;98184.91;;;14.72;59.08
74958;BME280;63741;42.624;26.276;2023-04-01T17:04:38;98174.16;;;14.65;59.58
74958;BME280;63741;42.624;26.276;2023-04-01T17:24:28;98253.38;;;14.55;58.62
74958;BME280;63741;42.624;26.276;2023-04-01T17:33:06;98292.88;;;14.12;61.86
74958;BME280;63741;42.624;26.276;2023-04-01T17:35:50;98314.66;;;14.16;61.59
74958;BME280;63741;42.624;26.276;2023-04-01T17:49:37;98360.19;;;14.13;62.25
74958;BME280;63741;42.624;26.276;2023-04-01T17:52:27;98365.22;;;14.39;61.77
74958;BME280;63741;42.624;26.276;2023-04-01T17:55:24;98372.25;;;14.24;61.57
74958;BME280;63741;42.624;26.276;2023-04-01T17:58:02;98374.28;;;14.22;62.22
74958;BME280;63741;42.624;26.276;2023-04-01T18:00:57;98370.22;;;14.03;63.34
74958;BME280;63741;42.624;26.276;2023-04-01T18:15:10;98392.31;;;14.03;62.61
74958;BME280;63741;42.624;26.276;2023-04-01T18:20:37;98409.88;;;14.12;63.42
74958;BME280;63741;42.624;26.276;2023-04-01T18:25:54;98411.06;;;14.02;62.99
74958;BME280;63741;42.624;26.276;2023-04-01T18:28:42;98412.56;;;14.04;63.03
74958;BME280;63741;42.624;26.276;2023-04-01T18:31:19;98416.78;;;13.82;63.39
74958;BME280;63741;42.624;26.276;2023-04-01T18:38:57;98421.81;;;13.53;66.23
74958;BME280;63741;42.624;26.276;2023-04-01T18:41:53;98430.94;;;13.50;66.41
74958;BME280;63741;42.624;26.276;2023-04-01T18:44:46;98431.59;;;13.60;66.06
74958;BME280;63741;42.624;26.276;2023-04-01T18:50:22;98420.50;;;13.49;66.95
74958;BME280;63741;42.624;26.276;2023-04-01T18:52:59;98438.91;;;13.42;68.47
74958;BME280;63741;42.624;26.276;2023-04-01T18:55:42;98434.09;;;13.37;67.44
74958;BME280;63741;42.624;26.276;2023-04-01T18:58:20;98420.28;;;13.18;68.67
74958;BME280;63741;42.624;26.276;2023-04-01T19:00:52;98425.75;;;13.08;69.75
74958;BME280;63741;42.624;26.276;2023-04-01T19:04:08;98417.28;;;13.12;69.57
74958;BME280;63741;42.624;26.276;2023-04-01T19:06:21;98410.59;;;12.76;70.10
74958;BME280;63741;42.624;26.276;2023-04-01T19:08:51;98412.28;;;12.85;69.25
74958;BME280;63741;42.624;26.276;2023-04-01T19:22:01;98444.50;;;13.06;69.03
74958;BME280;63741;42.624;26.276;2023-04-01T19:25:10;98448.16;;;13.05;69.37
74958;BME280;63741;42.624;26.276;2023-04-01T19:28:15;98456.28;;;13.04;69.46
74958;BME280;63741;42.624;26.276;2023-04-01T19:38:41;98516.19;;;13.14;67.36
74958;BME280;63741;42.624;26.276;2023-04-01T19:44:15;98518.72;;;13.24;66.90
74958;BME280;63741;42.624;26.276;2023-04-01T19:47:01;98504.56;;;13.07;67.96
74958;BME280;63741;42.624;26.276;2023-04-01T19:49:49;98485.13;;;13.07;67.56
74958;BME280;63741;42.624;26.276;2023-04-01T19:52:50;98501.38;;;12.96;68.08
74958;BME280;63741;42.624;26.276;2023-04-01T19:55:44;98493.09;;;12.99;68.01
74958;BME280;63741;42.624;26.276;2023-04-01T20:01:28;98471.22;;;13.21;65.96
74958;BME280;63741;42.624;26.276;2023-04-01T20:07:04;98467.47;;;13.40;62.02
74958;BME280;63741;42.624;26.276;2023-04-01T20:09:43;98461.66;;;13.28;61.73
74958;BME280;63741;42.624;26.276;2023-04-01T20:14:58;98464.81;;;13.56;58.96
74958;BME280;63741;42.624;26.276;2023-04-01T20:17:33;98466.94;;;13.77;57.08
74958;BME280;63741;42.624;26.276;2023-04-01T20:26:02;98448.34;;;13.94;56.06
74958;BME280;63741;42.624;26.276;2023-04-01T20:31:44;98451.38;;;13.42;58.98
74958;BME280;63741;42.624;26.276;2023-04-01T20:34:42;98463.97;;;13.23;59.81
74958;BME280;63741;42.624;26.276;2023-04-01T20:51:22;98485.25;;;12.73;66.80
74958;BME280;63741;42.624;26.276;2023-04-01T21:07:08;98513.53;;;13.14;63.82
74958;BME280;63741;42.624;26.276;2023-04-01T21:12:35;98512.75;;;12.72;64.83
74958;BME280;63741;42.624;26.276;2023-04-01T21:25:55;98520.25;;;13.43;56.93
74958;BME280;63741;42.624;26.276;2023-04-01T21:28:41;98511.06;;;13.21;57.01
74958;BME280;63741;42.624;26.276;2023-04-01T21:37:12;98526.88;;;12.80;58.43
74958;BME280;63741;42.624;26.276;2023-04-01T21:45:50;98537.56;;;12.28;65.04
74958;BME280;63741;42.624;26.276;2023-04-01T21:57:12;98535.69;;;12.47;60.73
74958;BME280;63741;42.624;26.276;2023-04-01T22:00:23;98542.47;;;12.83;57.06
74958;BME280;63741;42.624;26.276;2023-04-01T22:06:00;98553.44;;;12.88;57.21
74958;BME280;63741;42.624;26.276;2023-04-01T22:11:38;98563.22;;;13.22;55.87
74958;BME280;63741;42.624;26.276;2023-04-01T22:14:39;98559.34;;;13.16;55.96
74958;BME280;63741;42.624;26.276;2023-04-01T22:25:51;98567.78;;;11.92;63.28
74958;BME280;63741;42.624;26.276;2023-04-01T22:28:20;98556.22;;;11.75;62.75
74958;BME280;63741;42.624;26.276;2023-04-01T22:30:54;98553.63;;;11.65;63.06
74958;BME280;63741;42.624;26.276;2023-04-01T22:34:16;98552.13;;;11.62;63.55
74958;BME280;63741;42.624;26.276;2023-04-01T22:36:44;98557.41;;;11.62;63.42
74958;BME280;63741;42.624;26.276;2023-04-01T22:39:32;98559.00;;;11.55;63.74
74958;BME280;63741;42.624;26.276;2023-04-01T22:42:41;98562.09;;;11.51;64.42
74958;BME280;63741;42.624;26.276;2023-04-01T22:50:19;98555.56;;;11.09;65.25
74958;BME280;63741;42.624;26.276;2023-04-01T22:52:51;98556.94;;;11.13;65.08
74958;BME280;63741;42.624;26.276;2023-04-01T22:55:31;98560.41;;;11.14;64.67
74958;BME280;63741;42.624;26.276;2023-04-01T22:58:05;98556.31;;;11.20;63.92
74958;BME280;63741;42.624;26.276;2023-04-01T23:00:45;98563.16;;;11.40;62.88
74958;BME280;63741;42.624;26.276;2023-04-01T23:03:29;98565.09;;;11.20;63.06
74958;BME280;63741;42.624;26.276;2023-04-01T23:05:59;98565.41;;;11.17;63.33
74958;BME280;63741;42.624;26.276;2023-04-01T23:08:57;98559.88;;;11.28;61.93
74958;BME280;63741;42.624;26.276;2023-04-01T23:11:42;98564.91;;;11.49;61.93
74958;BME280;63741;42.624;26.276;2023-04-01T23:19:37;98560.31;;;11.06;63.50
74958;BME280;63741;42.624;26.276;2023-04-01T23:22:21;98566.22;;;11.00;63.43
74958;BME280;63741;42.624;26.276;2023-04-01T23:25:17;98572.00;;;10.85;63.38
74958;BME280;63741;42.624;26.276;2023-04-01T23:27:56;98573.06;;;10.65;63.33
74958;BME280;63741;42.624;26.276;2023-04-01T23:33:30;98598.56;;;10.56;63.88
74958;BME280;63741;42.624;26.276;2023-04-01T23:38:38;98597.22;;;10.33;65.35
74958;BME280;63741;42.624;26.276;2023-04-01T23:41:07;98599.88;;;10.23;65.57
74958;BME280;63741;42.624;26.276;2023-04-01T23:43:40;98606.09;;;10.22;66.44
74958;BME280;63741;42.624;26.276;2023-04-01T23:46:08;98594.84;;;10.20;66.39
74958;BME280;63741;42.624;26.276;2023-04-01T23:48:41;98591.94;;;10.23;65.81
74958;BME280;63741;42.624;26.276;2023-04-01T23:51:29;98593.34;;;10.27;64.47
74958;BME280;63741;42.624;26.276;2023-04-01T23:54:11;98597.47;;;10.40;63.35
74958;BME280;63741;42.624;26.276;2023-04-01T23:56:53;98595.91;;;10.56;61.72
74958;BME280;63741;42.624;26.276;2023-04-01T23:59:30;98600.78;;;10.88;59.72
